createdAt,value
2023-02-28T00:00:22.699Z,100523.77
2023-02-28T00:02:52.079Z,100526.15
2023-02-28T00:05:24.118Z,100527.38
2023-02-28T00:07:54.159Z,100530.30
2023-02-28T00:10:27.667Z,100529.95
2023-02-28T00:13:01.591Z,100535.23
2023-02-28T00:15:30.265Z,100539.13
2023-02-28T00:17:58.745Z,100543.77
2023-02-28T00:20:28.048Z,100547.02
2023-02-28T00:22:56.736Z,100546.62
2023-02-28T00:25:27.881Z,100548.14
2023-02-28T00:27:56.874Z,100547.63
2023-02-28T00:30:25.152Z,100546.52
2023-02-28T00:32:54.455Z,100544.80
2023-02-28T00:35:22.968Z,100541.01
2023-02-28T00:37:51.527Z,100541.17
2023-02-28T00:42:36.618Z,100540.36
2023-02-28T00:45:06.026Z,100538.94
2023-02-28T00:47:38.601Z,100542.81
2023-02-28T00:50:09.697Z,100538.03
2023-02-28T00:52:38.841Z,100536.64
2023-02-28T00:55:07.778Z,100533.13
2023-02-28T00:57:36.223Z,100529.30
2023-02-28T01:00:06.780Z,100527.52
2023-02-28T01:02:35.548Z,100522.61
2023-02-28T01:05:07.683Z,100525.09
2023-02-28T01:07:36.403Z,100527.63
2023-02-28T01:10:05.832Z,100529.63
2023-02-28T01:12:34.229Z,100529.15
2023-02-28T01:15:03.083Z,100531.73
2023-02-28T01:17:32.218Z,100534.93
2023-02-28T01:20:03.026Z,100537.30
2023-02-28T01:22:32.015Z,100536.48
2023-02-28T01:25:01.011Z,100536.97
2023-02-28T01:27:30.314Z,100539.45
2023-02-28T01:30:03.841Z,100538.32
2023-02-28T01:32:32.203Z,100535.73
2023-02-28T01:35:00.482Z,100536.20
2023-02-28T01:37:29.381Z,100536.79
2023-02-28T01:39:58.055Z,100537.84
2023-02-28T01:42:26.845Z,100537.45
2023-02-28T01:45:24.927Z,100540.61
2023-02-28T01:47:55.765Z,100544.64
2023-02-28T01:50:26.397Z,100543.19
2023-02-28T01:52:56.243Z,100545.70
2023-02-28T01:55:29.673Z,100545.76
2023-02-28T01:58:03.009Z,100545.19
2023-02-28T02:00:31.903Z,100544.46
2023-02-28T02:03:06.318Z,100545.08
2023-02-28T02:05:35.629Z,100547.92
2023-02-28T02:08:07.952Z,100556.34
2023-02-28T02:10:43.251Z,100552.83
2023-02-28T02:13:14.715Z,100554.36
2023-02-28T02:15:55.284Z,100554.54
2023-02-28T02:18:29.893Z,100539.89
2023-02-28T02:21:13.638Z,100556.83
2023-02-28T02:24:00.657Z,100558.73
2023-02-28T02:26:35.490Z,100560.60
2023-02-28T02:29:44.217Z,100558.52
2023-02-28T02:32:18.090Z,100554.91
2023-02-28T02:35:30.870Z,100560.27
2023-02-28T02:38:23.339Z,100557.73
2023-02-28T02:41:04.685Z,100563.66
2023-02-28T02:43:37.058Z,100570.89
2023-02-28T02:46:13.646Z,100573.99
2023-02-28T02:48:42.020Z,100572.23
2023-02-28T02:51:18.752Z,100575.30
2023-02-28T02:53:52.944Z,100577.44
2023-02-28T02:56:24.670Z,100575.51
2023-02-28T02:58:53.256Z,100581.04
2023-02-28T03:01:29.154Z,100580.65
2023-02-28T03:04:06.823Z,100578.31
2023-02-28T03:06:36.427Z,100579.53
2023-02-28T03:09:06.147Z,100582.48
2023-02-28T03:11:34.521Z,100586.21
2023-02-28T03:14:31.892Z,100587.23
2023-02-28T03:17:25.148Z,100586.45
2023-02-28T03:20:06.480Z,100587.74
2023-02-28T03:22:58.789Z,100590.79
2023-02-28T03:25:32.077Z,100593.89
2023-02-28T03:28:03.844Z,100602.28
2023-02-28T03:30:41.129Z,100608.31
2023-02-28T03:33:14.017Z,100608.77
2023-02-28T03:36:04.213Z,100610.59
2023-02-28T03:38:35.471Z,100612.66
2023-02-28T03:41:19.001Z,100618.98
2023-02-28T03:43:55.059Z,100619.17
2023-02-28T03:46:26.192Z,100620.02
2023-02-28T03:49:06.165Z,100622.02
2023-02-28T03:51:36.590Z,100619.23
2023-02-28T03:54:08.524Z,100617.50
2023-02-28T03:56:44.822Z,100612.04
2023-02-28T03:59:17.810Z,100615.95
2023-02-28T04:01:47.711Z,100616.38
2023-02-28T04:04:16.977Z,100615.70
2023-02-28T04:06:51.693Z,100618.91
2023-02-28T04:09:20.147Z,100617.39
2023-02-28T04:11:53.184Z,100621.15
2023-02-28T04:14:21.517Z,100625.16
2023-02-28T04:16:49.877Z,100620.33
2023-02-28T04:19:18.279Z,100618.11
2023-02-28T04:21:48.426Z,100614.36
2023-02-28T04:24:24.463Z,100615.65
2023-02-28T04:26:56.379Z,100615.06
2023-02-28T04:29:29.627Z,100615.27
2023-02-28T04:32:02.169Z,100613.17
2023-02-28T04:34:31.650Z,100613.80
2023-02-28T04:37:16.988Z,100613.63
2023-02-28T04:39:46.409Z,100613.73
2023-02-28T04:42:16.219Z,100614.83
2023-02-28T04:44:46.336Z,100620.23
2023-02-28T04:47:15.025Z,100625.08
2023-02-28T04:49:44.128Z,100629.73
2023-02-28T04:52:12.507Z,100629.73
2023-02-28T04:54:42.934Z,100632.19
2023-02-28T04:57:11.735Z,100630.55
2023-02-28T04:59:41.128Z,100632.08
2023-02-28T05:02:10.086Z,100630.70
2023-02-28T05:04:38.640Z,100635.89
2023-02-28T05:07:07.198Z,100638.95
2023-02-28T05:09:36.089Z,100642.98
2023-02-28T05:12:08.156Z,100642.57
2023-02-28T05:14:38.285Z,100651.32
2023-02-28T05:17:06.763Z,100649.91
2023-02-28T05:19:36.786Z,100648.99
2023-02-28T05:22:05.268Z,100648.92
2023-02-28T05:24:41.330Z,100651.55
2023-02-28T05:27:10.033Z,100655.55
2023-02-28T05:29:42.914Z,100654.23
2023-02-28T05:32:14.897Z,100658.08
2023-02-28T05:34:43.370Z,100658.20
2023-02-28T05:37:15.207Z,100664.90
2023-02-28T05:39:44.029Z,100665.83
2023-02-28T05:42:14.546Z,100664.03
2023-02-28T05:44:44.770Z,100669.59
2023-02-28T05:47:16.580Z,100667.98
2023-02-28T05:49:45.334Z,100668.21
2023-02-28T05:52:15.541Z,100673.21
2023-02-28T05:54:43.930Z,100675.05
2023-02-28T05:57:19.076Z,100677.52
2023-02-28T05:59:52.986Z,100657.96
2023-02-28T06:02:21.524Z,100679.33
2023-02-28T06:04:50.061Z,100684.05
2023-02-28T06:07:18.951Z,100683.48
2023-02-28T06:09:47.738Z,100684.55
2023-02-28T06:12:16.735Z,100682.45
2023-02-28T06:14:45.117Z,100681.23
2023-02-28T06:17:18.109Z,100683.59
2023-02-28T06:19:47.615Z,100685.17
2023-02-28T06:22:16.100Z,100684.35
2023-02-28T06:24:44.589Z,100686.39
2023-02-28T06:27:13.072Z,100682.68
2023-02-28T06:29:41.390Z,100684.26
2023-02-28T06:32:10.727Z,100678.83
2023-02-28T06:34:40.575Z,100677.67
2023-02-28T06:37:09.060Z,100678.19
2023-02-28T06:39:40.512Z,100672.77
2023-02-28T06:42:09.199Z,100675.04
2023-02-28T06:44:37.579Z,100672.73
2023-02-28T06:47:06.681Z,100669.08
2023-02-28T06:49:39.982Z,100664.62
2023-02-28T06:52:11.120Z,100663.80
2023-02-28T06:54:39.709Z,100665.70
2023-02-28T06:57:08.500Z,100661.05
2023-02-28T06:59:37.704Z,100660.35
2023-02-28T07:02:08.142Z,100653.86
2023-02-28T07:04:37.045Z,100650.63
2023-02-28T07:07:08.577Z,100653.59
2023-02-28T07:09:38.903Z,100654.71
2023-02-28T07:12:07.693Z,100657.96
2023-02-28T07:14:37.946Z,100654.30
2023-02-28T07:17:08.963Z,100644.99
2023-02-28T07:19:40.373Z,100643.10
2023-02-28T07:22:08.700Z,100647.33
2023-02-28T07:24:37.185Z,100647.14
2023-02-28T07:27:05.562Z,100648.80
2023-02-28T07:29:34.762Z,100647.20
2023-02-28T07:32:03.175Z,100650.45
2023-02-28T07:34:32.141Z,100653.88
2023-02-28T07:37:01.240Z,100660.39
2023-02-28T07:39:29.629Z,100662.36
2023-02-28T07:41:58.216Z,100665.57
2023-02-28T07:44:28.041Z,100667.77
2023-02-28T07:46:56.671Z,100668.39
2023-02-28T07:49:27.403Z,100672.45
2023-02-28T07:51:56.044Z,100671.64
2023-02-28T07:54:25.762Z,100670.13
2023-02-28T07:56:54.447Z,100668.60
2023-02-28T07:59:23.545Z,100671.95
2023-02-28T08:01:52.324Z,100673.63
2023-02-28T08:04:20.821Z,100671.63
2023-02-28T08:07:00.681Z,100674.23
2023-02-28T08:09:31.206Z,100670.48
2023-02-28T08:12:02.760Z,100665.93
2023-02-28T08:14:31.550Z,100666.08
2023-02-28T08:17:00.146Z,100668.23
2023-02-28T08:19:29.546Z,100671.71
2023-02-28T08:21:58.134Z,100673.71
2023-02-28T08:24:26.717Z,100676.35
2023-02-28T08:26:56.048Z,100671.91
2023-02-28T08:29:24.934Z,100667.31
2023-02-28T08:31:53.541Z,100665.14
2023-02-28T08:34:22.286Z,100666.69
2023-02-28T08:36:50.667Z,100666.88
2023-02-28T08:39:23.047Z,100669.48
2023-02-28T08:42:02.134Z,100660.29
2023-02-28T08:44:35.436Z,100660.95
2023-02-28T08:47:03.853Z,100657.08
2023-02-28T08:49:32.449Z,100657.41
2023-02-28T08:52:01.133Z,100650.03
2023-02-28T08:54:32.685Z,100658.24
2023-02-28T08:57:01.676Z,100656.09
2023-02-28T08:59:30.584Z,100654.68
2023-02-28T09:02:04.095Z,100658.06
2023-02-28T09:04:32.767Z,100656.50
2023-02-28T09:07:01.258Z,100663.67
2023-02-28T09:09:29.728Z,100663.23
2023-02-28T09:11:58.217Z,100663.42
2023-02-28T09:14:29.767Z,100660.46
2023-02-28T09:16:58.175Z,100659.12
2023-02-28T09:19:26.632Z,100659.17
2023-02-28T09:21:55.016Z,100659.47
2023-02-28T09:24:23.605Z,100661.06
2023-02-28T09:27:03.815Z,100659.17
2023-02-28T09:29:34.715Z,100660.52
2023-02-28T09:32:03.574Z,100657.36
2023-02-28T09:34:32.801Z,100654.35
2023-02-28T09:37:01.232Z,100656.27
2023-02-28T09:39:30.273Z,100652.10
2023-02-28T09:41:59.059Z,100645.02
2023-02-28T09:44:33.424Z,100645.84
2023-02-28T09:47:07.191Z,100643.39
2023-02-28T09:49:44.871Z,100639.25
2023-02-28T09:52:20.568Z,100634.88
2023-02-28T09:54:49.030Z,100630.25
2023-02-28T09:57:44.030Z,100629.33
2023-02-28T10:00:26.239Z,100619.43
2023-02-28T10:03:11.841Z,100613.95
2023-02-28T10:06:04.676Z,100611.11
2023-02-28T10:08:44.019Z,100602.35
2023-02-28T10:11:17.764Z,100600.84
2023-02-28T10:14:03.817Z,100598.55
2023-02-28T10:16:39.821Z,100594.40
2023-02-28T10:19:15.952Z,100587.77
2023-02-28T10:21:59.337Z,100589.72
2023-02-28T10:24:47.342Z,100592.78
2023-02-28T10:27:23.154Z,100589.86
2023-02-28T10:29:54.631Z,100593.60
2023-02-28T10:32:46.656Z,100590.09
2023-02-28T10:35:20.670Z,100584.74
2023-02-28T10:37:57.455Z,100585.89
2023-02-28T10:40:27.360Z,100586.86
2023-02-28T10:43:04.961Z,100575.25
2023-02-28T10:45:36.012Z,100577.95
2023-02-28T10:48:16.872Z,100573.73
2023-02-28T10:50:46.384Z,100565.52
2023-02-28T10:53:27.190Z,100567.55
2023-02-28T10:56:09.253Z,100573.58
2023-02-28T10:58:52.993Z,100567.11
2023-02-28T11:01:24.908Z,100567.83
2023-02-28T11:03:53.747Z,100568.04
2023-02-28T11:06:28.486Z,100560.55
2023-02-28T11:08:59.222Z,100555.19
2023-02-28T11:11:30.823Z,100547.85
2023-02-28T11:14:06.001Z,100542.97
2023-02-28T11:16:36.636Z,100535.88
2023-02-28T11:19:08.004Z,100535.48
2023-02-28T11:21:41.393Z,100534.81
2023-02-28T11:24:24.916Z,100535.52
2023-02-28T11:26:53.399Z,100536.79
2023-02-28T11:29:48.210Z,100532.79
2023-02-28T11:32:23.158Z,100532.10
2023-02-28T11:35:19.060Z,100530.89
2023-02-28T11:37:47.642Z,100527.08
2023-02-28T11:40:17.846Z,100528.29
2023-02-28T11:43:23.826Z,100527.20
2023-02-28T11:46:07.557Z,100532.80
2023-02-28T11:49:08.103Z,100534.48
2023-02-28T11:51:43.446Z,100530.67
2023-02-28T11:54:27.518Z,100531.90
2023-02-28T11:57:10.520Z,100523.05
2023-02-28T11:59:39.515Z,100519.45
2023-02-28T12:02:10.735Z,100516.85
2023-02-28T12:04:58.194Z,100515.54
2023-02-28T12:07:40.605Z,100518.56
2023-02-28T12:10:28.441Z,100516.79
2023-02-28T12:13:18.836Z,100510.35
2023-02-28T12:16:06.065Z,100502.64
2023-02-28T12:18:47.147Z,100504.30
2023-02-28T12:21:22.181Z,100498.79
2023-02-28T12:24:11.955Z,100492.17
2023-02-28T12:26:45.775Z,100490.60
2023-02-28T12:29:21.834Z,100490.64
2023-02-28T12:32:00.466Z,100489.25
2023-02-28T12:34:32.739Z,100486.77
2023-02-28T12:37:03.959Z,100484.29
2023-02-28T12:39:48.598Z,100485.71
2023-02-28T12:42:23.858Z,100485.73
2023-02-28T12:45:14.481Z,100485.85
2023-02-28T12:47:43.762Z,100482.70
2023-02-28T12:50:15.215Z,100474.23
2023-02-28T12:52:54.448Z,100468.42
2023-02-28T12:55:45.250Z,100470.30
2023-02-28T13:00:27.061Z,100462.10
2023-02-28T13:03:31.484Z,100461.21
2023-02-28T13:06:15.633Z,100457.14
2023-02-28T13:08:50.056Z,100457.61
2023-02-28T13:11:35.766Z,100455.75
2023-02-28T13:14:21.437Z,100452.67
2023-02-28T13:17:00.697Z,100452.48
2023-02-28T13:19:31.805Z,100452.00
2023-02-28T13:22:01.013Z,100445.01
2023-02-28T13:24:43.858Z,100446.34
2023-02-28T13:27:15.169Z,100441.89
2023-02-28T13:29:45.695Z,100438.44
2023-02-28T13:32:34.561Z,100432.64
2023-02-28T13:35:02.938Z,100431.56
2023-02-28T13:37:37.309Z,100426.98
2023-02-28T13:40:11.884Z,100426.70
2023-02-28T13:42:50.932Z,100427.09
2023-02-28T13:45:31.523Z,100420.95
2023-02-28T13:48:04.172Z,100416.23
2023-02-28T13:50:39.820Z,100407.81
2023-02-28T13:53:14.555Z,100411.33
2023-02-28T13:55:44.881Z,100405.52
2023-02-28T13:58:25.335Z,100412.73
2023-02-28T14:01:23.078Z,100407.23
2023-02-28T14:04:17.615Z,100402.56
2023-02-28T14:06:50.119Z,100401.70
2023-02-28T14:09:20.605Z,100397.27
2023-02-28T14:11:52.669Z,100392.01
2023-02-28T14:14:37.126Z,100391.66
2023-02-28T14:17:10.944Z,100383.64
2023-02-28T14:19:39.720Z,100379.55
2023-02-28T14:22:46.838Z,100384.30
2023-02-28T14:25:34.451Z,100377.20
2023-02-28T14:28:41.234Z,100375.55
2023-02-28T14:31:35.947Z,100366.64
2023-02-28T14:34:27.786Z,100368.30
2023-02-28T14:36:56.124Z,100360.59
2023-02-28T14:39:25.786Z,100354.49
2023-02-28T14:41:54.317Z,100340.33
2023-02-28T14:44:27.000Z,100350.14
2023-02-28T14:46:57.701Z,100346.97
2023-02-28T14:49:25.921Z,100344.54
2023-02-28T14:52:11.028Z,100340.95
2023-02-28T14:54:40.078Z,100339.36
2023-02-28T14:57:27.502Z,100339.74
2023-02-28T15:00:23.225Z,100336.42
2023-02-28T15:02:51.810Z,100333.08
2023-02-28T15:05:23.155Z,100328.79
2023-02-28T15:08:23.084Z,100326.23
2023-02-28T15:10:52.887Z,100325.56
2023-02-28T15:13:33.247Z,100325.53
2023-02-28T15:16:04.072Z,100327.02
2023-02-28T15:18:54.075Z,100326.20
2023-02-28T15:21:26.274Z,100330.45
2023-02-28T15:24:25.133Z,100329.71
2023-02-28T15:27:01.513Z,100330.61
2023-02-28T15:29:30.909Z,100330.95
2023-02-28T15:32:05.771Z,100327.95
2023-02-28T15:34:44.450Z,100327.03
2023-02-28T15:37:42.578Z,100326.10
2023-02-28T15:40:19.112Z,100327.79
2023-02-28T15:43:07.561Z,100328.33
2023-02-28T15:45:43.045Z,100329.16
2023-02-28T15:48:18.861Z,100336.90
2023-02-28T15:50:55.650Z,100339.46
2023-02-28T15:53:26.790Z,100341.17
2023-02-28T15:56:03.675Z,100343.50
2023-02-28T15:58:32.450Z,100346.25
2023-02-28T16:01:09.024Z,100347.63
2023-02-28T16:03:43.136Z,100357.81
2023-02-28T16:06:17.973Z,100357.34
2023-02-28T16:08:46.759Z,100359.18
2023-02-28T16:11:16.470Z,100366.24
2023-02-28T16:13:44.958Z,100368.59
2023-02-28T16:16:19.532Z,100371.70
2023-02-28T16:18:48.062Z,100368.55
2023-02-28T16:21:16.341Z,100370.04
2023-02-28T16:23:45.029Z,100372.59
2023-02-28T16:26:20.296Z,100374.40
2023-02-28T16:28:49.061Z,100375.79
2023-02-28T16:31:17.956Z,100375.66
2023-02-28T16:33:46.643Z,100380.30
2023-02-28T16:36:19.920Z,100379.00
2023-02-28T16:38:51.700Z,100381.71
2023-02-28T16:41:22.441Z,100379.23
2023-02-28T16:43:51.605Z,100378.84
2023-02-28T16:46:21.084Z,100378.98
2023-02-28T16:48:52.779Z,100378.79
2023-02-28T16:51:23.031Z,100378.45
2023-02-28T16:53:57.498Z,100376.43
2023-02-28T16:56:28.813Z,100379.02
2023-02-28T16:59:00.971Z,100377.83
2023-02-28T17:01:33.891Z,100374.16
2023-02-28T17:04:03.390Z,100371.77
2023-02-28T17:06:33.717Z,100368.65
2023-02-28T17:09:05.070Z,100366.61
2023-02-28T17:11:35.487Z,100366.17
2023-02-28T17:14:05.591Z,100368.92
2023-02-28T17:16:48.775Z,100367.73
2023-02-28T17:19:22.311Z,100375.21
2023-02-28T17:21:52.499Z,100378.13
2023-02-28T17:24:30.867Z,100373.20
2023-02-28T17:27:02.553Z,100369.30
2023-02-28T17:29:32.498Z,100361.72
2023-02-28T17:32:17.331Z,100359.95
2023-02-28T17:34:47.420Z,100358.64
2023-02-28T17:37:17.597Z,100355.77
2023-02-28T17:39:46.444Z,100356.79
2023-02-28T17:42:17.586Z,100351.59
2023-02-28T17:44:46.274Z,100347.97
2023-02-28T17:47:14.758Z,100347.25
2023-02-28T17:49:43.965Z,100348.46
2023-02-28T17:52:12.447Z,100354.55
2023-02-28T17:54:41.643Z,100360.58
2023-02-28T17:57:14.546Z,100365.48
2023-02-28T17:59:44.141Z,100371.84
2023-02-28T18:02:13.850Z,100377.52
2023-02-28T18:04:47.556Z,100377.66
2023-02-28T18:07:16.870Z,100375.90
2023-02-28T18:09:45.553Z,100375.88
2023-02-28T18:12:14.035Z,100378.35
2023-02-28T18:14:43.648Z,100378.57
2023-02-28T18:17:13.461Z,100371.21
2023-02-28T18:19:44.397Z,100369.46
2023-02-28T18:22:13.194Z,100374.39
2023-02-28T18:24:41.571Z,100378.42
2023-02-28T18:27:11.383Z,100378.19
2023-02-28T18:29:41.848Z,100376.25
2023-02-28T18:32:10.576Z,100366.21
2023-02-28T18:34:38.990Z,100381.27
2023-02-28T18:37:07.468Z,100384.33
2023-02-28T18:39:35.953Z,100386.22
2023-02-28T18:42:04.645Z,100382.25
2023-02-28T18:44:33.330Z,100382.23
2023-02-28T18:47:02.475Z,100380.58
2023-02-28T18:49:35.932Z,100374.54
2023-02-28T18:52:04.656Z,100370.74
2023-02-28T18:54:33.404Z,100366.85
2023-02-28T18:57:01.719Z,100366.45
2023-02-28T18:59:30.370Z,100354.67
2023-02-28T19:01:58.857Z,100368.14
2023-02-28T19:04:27.286Z,100370.12
2023-02-28T19:06:55.618Z,100370.05
2023-02-28T19:09:24.000Z,100365.23
2023-02-28T19:11:52.384Z,100367.78
2023-02-28T19:14:22.102Z,100372.48
2023-02-28T19:16:52.300Z,100368.86
2023-02-28T19:19:20.803Z,100365.02
2023-02-28T19:21:49.596Z,100347.61
2023-02-28T19:24:20.079Z,100335.21
2023-02-28T19:26:48.715Z,100356.65
2023-02-28T19:29:17.097Z,100348.30
2023-02-28T19:31:46.293Z,100343.86
2023-02-28T19:34:16.112Z,100343.73
2023-02-28T19:36:44.907Z,100333.47
2023-02-28T19:39:13.901Z,100331.33
2023-02-28T19:41:42.385Z,100329.41
2023-02-28T19:44:10.770Z,100331.18
2023-02-28T19:46:44.709Z,100328.83
2023-02-28T19:49:13.065Z,100323.02
2023-02-28T19:51:41.853Z,100326.35
2023-02-28T19:54:13.208Z,100331.83
2023-02-28T19:56:42.204Z,100329.29
2023-02-28T19:59:21.081Z,100329.98
2023-02-28T20:01:54.940Z,100335.59
2023-02-28T20:04:24.490Z,100333.07
2023-02-28T20:06:55.724Z,100330.19
2023-02-28T20:09:24.494Z,100330.17
2023-02-28T20:11:59.567Z,100331.58
2023-02-28T20:14:28.122Z,100327.48
2023-02-28T20:16:59.633Z,100323.63
2023-02-28T20:19:28.258Z,100325.73
2023-02-28T20:21:56.950Z,100317.71
2023-02-28T20:24:26.252Z,100299.48
2023-02-28T20:26:55.542Z,100313.42
2023-02-28T20:29:24.559Z,100314.02
2023-02-28T20:31:53.865Z,100318.65
2023-02-28T20:34:23.671Z,100316.09
2023-02-28T20:36:52.360Z,100311.95
2023-02-28T20:39:20.746Z,100303.34
2023-02-28T20:41:49.328Z,100311.60
2023-02-28T20:44:20.065Z,100306.74
2023-02-28T20:46:48.556Z,100303.77
2023-02-28T20:49:17.254Z,100297.73
2023-02-28T20:51:45.735Z,100300.31
2023-02-28T20:54:16.179Z,100303.33
2023-02-28T20:56:44.945Z,100301.27
2023-02-28T20:59:13.428Z,100297.87
2023-02-28T21:01:44.561Z,100299.11
2023-02-28T21:04:13.011Z,100299.70
2023-02-28T21:06:47.732Z,100302.33
2023-02-28T21:09:18.539Z,100295.54
2023-02-28T21:11:46.912Z,100293.36
2023-02-28T21:14:17.136Z,100297.08
2023-02-28T21:16:47.364Z,100290.19
2023-02-28T21:19:15.952Z,100287.91
2023-02-28T21:21:44.791Z,100289.22
2023-02-28T21:24:14.736Z,100287.55
2023-02-28T21:26:44.600Z,100278.13
2023-02-28T21:29:13.590Z,100271.32
2023-02-28T21:31:42.378Z,100266.30
2023-02-28T21:34:12.613Z,100264.73
2023-02-28T21:36:45.930Z,100261.22
2023-02-28T21:39:17.340Z,100258.89
2023-02-28T21:41:46.637Z,100258.95
2023-02-28T21:44:19.112Z,100253.83
2023-02-28T21:46:49.194Z,100253.38
2023-02-28T21:49:17.937Z,100251.42
2023-02-28T21:51:47.353Z,100251.96
2023-02-28T21:54:15.717Z,100249.96
2023-02-28T21:56:44.712Z,100249.07
2023-02-28T21:59:13.300Z,100247.06
2023-02-28T22:01:44.193Z,100244.19
2023-02-28T22:04:25.324Z,100247.81
2023-02-28T22:06:59.643Z,100247.59
2023-02-28T22:09:28.125Z,100240.70
2023-02-28T22:11:57.585Z,100234.88
2023-02-28T22:14:26.535Z,100228.63
2023-02-28T22:17:01.026Z,100228.60
2023-02-28T22:19:29.644Z,100226.08
2023-02-28T22:21:58.019Z,100222.77
2023-02-28T22:24:26.516Z,100218.63
2023-02-28T22:26:54.998Z,100215.92
2023-02-28T22:29:23.799Z,100213.14
2023-02-28T22:31:52.213Z,100217.92
2023-02-28T22:34:20.851Z,100206.71
2023-02-28T22:36:49.646Z,100200.73
2023-02-28T22:39:18.232Z,100204.23
2023-02-28T22:41:46.619Z,100199.30
2023-02-28T22:44:25.227Z,100197.11
2023-02-28T22:46:54.514Z,100199.59
2023-02-28T22:49:23.016Z,100198.20
2023-02-28T22:51:52.116Z,100196.17
2023-02-28T22:54:20.698Z,100199.08
2023-02-28T22:56:50.424Z,100196.13
2023-02-28T22:59:19.305Z,100195.08
2023-02-28T23:01:48.015Z,100198.26
2023-02-28T23:04:17.129Z,100204.61
2023-02-28T23:06:45.867Z,100205.52
2023-02-28T23:09:18.356Z,100207.99
2023-02-28T23:11:50.392Z,100206.65
2023-02-28T23:14:20.369Z,100205.75
2023-02-28T23:16:52.420Z,100204.23
2023-02-28T23:19:26.834Z,100203.32
2023-02-28T23:21:56.035Z,100203.10
2023-02-28T23:24:25.960Z,100198.01
2023-02-28T23:26:56.616Z,100200.47
2023-02-28T23:29:27.939Z,100194.55
2023-02-28T23:31:56.442Z,100187.75
2023-02-28T23:34:32.386Z,100185.82
2023-02-28T23:37:01.986Z,100184.42
2023-02-28T23:39:30.777Z,100184.73
2023-02-28T23:41:59.798Z,100181.27
2023-02-28T23:44:28.261Z,100179.66
2023-02-28T23:46:56.646Z,100171.07
2023-02-28T23:49:26.081Z,100164.39
2023-02-28T23:51:54.783Z,100164.27
2023-02-28T23:54:24.854Z,100164.88
2023-02-28T23:56:54.371Z,100161.80
2023-02-28T23:59:22.957Z,100150.73
